Tiempo atmosférico en la estación meteorológica de Barcelona, Museo Marítimo, Barcelona (37 m.)

Fecha
DESCASC
Temp. máxima en grados centígrados (hora)
DESCASC
Temp. mínima en grados centígrados (hora)
DESCASC
Temp. media en grados centígrados
DESCASC
Racha de viento máxima en m/sg (hora)
DESCASC
Velocidad máxima media en intervalos de 10 minutos(hora)
DESCASC
Precipitaciones diarias en mm
DESCASC
Precipitaciones de 00:00 a 06:00 en mm
DESCASC
Precipitaciones de 06:00 a 12:00 en mm
DESCASC
Precipitaciones de 12:00 a 18:00 en mm
DESCASC
Precipitaciones de 18:00 a 24:00 en mm
DESCASC
17-08-2017 30 (17:00) 22.9 (05:20) 26.4 8.06 (14:50) 4.44 (15:40) 0 0 0 0 0
16-08-2017 27.5 (15:40) 23.2 (07:40) 25.4 5.83 (03:40) 2.5 (13:50) 0.2 0 0.2 0 0
15-08-2017 28.4 (15:20) 22.2 (00:00) 25.3 5.83 (13:10) 2.78 (13:10) 0 0 0 0 0
14-08-2017 29 (17:00) 22.3 (06:30) 25.6 8.89 (12:40) 4.72 (13:30) 0 0 0 0 0
13-08-2017 27.9 (16:30) 20.8 (00:00) 24.3 6.94 (16:40) 3.61 (16:40) 0 0 0 0 0
12-08-2017 26.6 (17:10) 20.7 (00:00) 23.7 8.06 (17:30) 3.33 (18:00) 0 0 0 0 0
11-08-2017 25.4 (16:50) 18.6 (00:00) 22 7.5 (20:00) 3.33 (20:30) 0 0 0 0 0
10-08-2017 26.1 (16:30) 18.6 (00:00) 22.4 10.28 (16:20) 4.72 (18:10) 0.6 0.6 0 0 0
09-08-2017 26.2 (14:40) 19.5 (00:00) 22.9 8.89 (18:00) 3.33 (18:50) 1 0 0 0 1
08-08-2017 27.8 (10:00) 24 (00:00) 25.9 11.11 (10:20) 4.17 (12:00) 2.8 0 0 2.8 0
07-08-2017 30.4 (18:00) 24.6 (00:00) 27.5 8.61 (15:40) 4.72 (15:40) 0 0 0 0 0
06-08-2017 29.9 (13:50) 25.5 (00:00) 27.7 6.11 (13:00) 3.06 (18:30) 0.2 0 0.2 0 0
05-08-2017 33.2 (14:00) 25.8 (00:00) 29.5 8.89 (15:50) 5 (16:30) 0 0 0 0 0
04-08-2017 34.2 (13:00) 25 (00:00) 29.6 6.67 (16:20) 3.33 (17:50) 0.2 0.2 0 0 0
03-08-2017 33.4 (10:30) 26.1 (00:00) 29.8 5.83 (12:00) 3.06 (11:30) 0.4 0 0 0 0.4
02-08-2017 31.7 (19:20) 24.6 (00:00) 28.2 7.22 (18:30) 3.89 (18:40) 0.2 0 0.2 0 0
01-08-2017 28.3 (15:10) 25 (00:00) 26.6 7.22 (19:50) 2.78 (15:00) 0 0 0 0 0
31-07-2017 28.7 (15:10) 24.3 (00:00) 26.5 7.78 (09:50) 3.61 (10:30) 0.2 0 0.2 0 0
30-07-2017 29.5 (15:10) 23.5 (00:00) 26.5 7.22 (18:00) 2.78 (14:10) 0 0 0 0 0
29-07-2017 29.2 (16:20) 23.2 (00:00) 26.2 5 (13:40) 2.78 (12:00) 0 0 0 0 0
28-07-2017 28.6 (12:20) 24.7 (00:00) 26.7 6.67 (15:40) 3.33 (16:00) 0 0 0 0 0
27-07-2017 29.1 (17:00) 21.9 (00:00) 25.5 8.33 (19:10) 4.72 (18:20) 0.2 0 0 0 0.2
26-07-2017 26.7 (18:00) 21.1 (00:00) 23.9 6.39 (16:10) 2.5 (16:10) 0.8 0.8 0 0 0
25-07-2017 27 (13:30) 22.3 (00:00) 24.6 9.72 (16:40) 4.44 (16:00) 0.8 0 0 0 0.8
24-07-2017 29.1 (12:30) 21.7 (00:00) 25.4 6.94 (17:30) 3.61 (08:20) 0 0 0 0 0
23-07-2017 27.7 (14:20) 21.7 (00:00) 24.7 7.5 (19:10) 3.89 (19:10) 1.8 0 0 0 1.8
22-07-2017 29.4 (15:30) 23 (00:00) 26.2 7.22 (18:30) 3.61 (18:30) 0 0 0 0 0
21-07-2017 29.6 (13:40) 23.2 (00:00) 26.4 5.83 (01:00) 2.5 (17:20) 0 0 0 0 0
20-07-2017 27.9 (15:50) 24.5 (00:00) 26.2 10.28 (12:10) 4.72 (11:50) 0 0 0 0 0
19-07-2017 29.7 (16:00) 24.2 (00:00) 27 6.11 (20:20) 2.78 (20:20) 0 0 0 0 0

Gráficas

Temp. máximas Temp. mínimas Temp. medias Precipitaciones Rachas de viento máximas Velocidades máximas media en intervalos de 10 minutos

Datos horarios

Fecha y hora oficial Temperatura (ºC) Velocidad del viento (km/h) Dirección del viento Racha (km/h) Dirección de racha Precipitación (mm) Presión (hPa) Tendencia (hPa) Humedad (%)
2017-08-17 23:00:00 26.1 5 Sudoeste 8 Sudoeste 0 -- -- 73
2017-08-17 22:00:00 26.3 4 Sudoeste 9 Sudoeste 0 -- -- 73
2017-08-17 21:00:00 26.5 4 Sudoeste 12 Sudoeste 0 -- -- 71
2017-08-17 20:00:00 27.2 4 Oeste 14 Sudoeste 0 -- -- 72
2017-08-17 19:00:00 28.6 6 Sudoeste 17 Sudoeste 0 -- -- 64
2017-08-17 18:00:00 29.5 6 Sudoeste 20 Sur 0 -- -- 60
2017-08-17 17:00:00 30 5 Sudoeste 24 Sudoeste 0 -- -- 60
2017-08-17 16:00:00 29.4 13 Sudoeste 28 Sur 0 -- -- 62
2017-08-17 15:00:00 29.4 13 Sudoeste 29 Sur 0 -- -- 62
2017-08-17 14:00:00 29.8 12 Sudoeste 26 Sudoeste 0 -- -- 57
2017-08-17 13:00:00 29.9 12 Sudoeste 27 Sudoeste 0 -- -- 54
2017-08-17 12:00:00 29.8 8 Sudoeste 24 Sudoeste 0 -- -- 53
2017-08-17 11:00:00 29.1 8 Oeste 15 Oeste 0 -- -- 49
2017-08-17 10:00:00 27.8 3 Sur 9 Sudeste 0 -- -- 61
2017-08-17 09:00:00 25.3 4 Este 7 Sudeste 0 -- -- 69
2017-08-17 08:00:00 23.2 0 Calma 4 Oeste 0 -- -- 65
2017-08-17 07:00:00 23.9 3 Oeste 6 Oeste 0 -- -- 64
2017-08-17 06:00:00 23.3 0 Calma 4 Oeste 0 -- -- 66
2017-08-17 05:00:00 23.2 0 Calma 5 Oeste 0 -- -- 67
2017-08-17 04:00:00 24.5 4 Oeste 6 Oeste 0 -- -- 60
2017-08-17 03:00:00 24.5 0 Calma 4 Oeste 0 -- -- 57
2017-08-17 02:00:00 24.7 0 Calma 6 Nordeste 0 -- -- 56
2017-08-17 01:00:00 24.8 0 Calma 5 Este 0 -- -- 54
2017-08-17 00:00:00 24.9 0 Calma 10 Nordeste 0 -- -- 56
2017-08-16 23:00:00 25 3 Nordeste 10 Nordeste 0 -- -- 68
2017-08-16 22:00:00 25 4 Nordeste 13 Este 0 -- -- 70
2017-08-16 21:00:00 25.2 6 Este 21 Este 0 -- -- 70
2017-08-16 20:00:00 25.8 6 Este 17 Sudeste 0 -- -- 70
2017-08-16 19:00:00 26.5 7 Este 19 Este 0 -- -- 68
2017-08-16 18:00:00 27 9 Este 20 Sudeste 0 -- -- 67
2017-08-16 17:00:00 27.3 8 Este 17 Sudeste 0 -- -- 64
2017-08-16 16:00:00 27.5 6 Este 17 Sudeste 0 -- -- 69
2017-08-16 15:00:00 27.3 8 Este 18 Sudeste 0 -- -- 69
2017-08-16 14:00:00 26.9 9 Sudeste 19 Sudeste 0 -- -- 72
2017-08-16 13:00:00 26.8 6 Este 14 Sudeste 0 -- -- 71
2017-08-16 12:00:00 26.3 6 Este 15 Sudeste 0 -- -- 75
2017-08-16 11:00:00 25.5 6 Este 15 Este 0 -- -- 79
2017-08-16 10:00:00 25.2 5 Este 14 Este 0 -- -- 81
2017-08-16 09:00:00 24 4 Este 9 Nordeste 0.2 -- -- 86
2017-08-16 08:00:00 23.3 2 Este 8 Nordeste 0 -- -- 88
2017-08-16 07:00:00 23.6 3 Nordeste 12 Nordeste 0 -- -- 85
2017-08-16 06:00:00 24 7 Este 19 Sudeste 0 -- -- 87
2017-08-16 05:00:00 23.9 6 Nordeste 18 Sudeste 0 -- -- 87
2017-08-16 04:00:00 24.6 6 Este 21 Este 0 -- -- 86
2017-08-16 03:00:00 24.9 5 Nordeste 18 Sudeste 0 -- -- 84
2017-08-16 02:00:00 25.2 5 Este 15 Sudeste 0 -- -- 86
2017-08-16 01:00:00 25.2 4 Este 12 Este 0 -- -- 87
2017-08-16 00:00:00 25.3 5 Este 12 Este 0 -- -- 87
2017-08-15 23:00:00 25.4 4 Este 13 Nordeste 0 -- -- 86
2017-08-15 22:00:00 25.6 4 Este 14 Este 0 -- -- 85
2017-08-15 21:00:00 25.9 4 Este 13 Sudeste 0 -- -- 82
2017-08-15 20:00:00 26.1 5 Este 11 Este 0 -- -- 80
2017-08-15 19:00:00 26.4 4 Este 15 Sudeste 0 -- -- 79
2017-08-15 18:00:00 27 6 Este 16 Este 0 -- -- 76
2017-08-15 17:00:00 27.1 6 Este 19 Nordeste 0 -- -- 75
2017-08-15 16:00:00 27.9 7 Este 18 Este 0 -- -- 72
2017-08-15 15:00:00 28 6 Este 17 Sudeste 0 -- -- 70
2017-08-15 14:00:00 27.6 6 Este 21 Sudeste 0 -- -- 69
2017-08-15 13:00:00 27.3 8 Este 19 Este 0 -- -- 73
2017-08-15 12:00:00 27.2 7 Este 19 Sudeste 0 -- -- 71
2017-08-15 11:00:00 26.8 8 Este 17 Este 0 -- -- 74
2017-08-15 10:00:00 25.8 4 Este 12 Nordeste 0 -- -- 72
2017-08-15 09:00:00 23.5 4 Nordeste 13 Nordeste 0 -- -- 71
2017-08-15 08:00:00 22.3 5 Nordeste 15 Nordeste 0 -- -- 75
2017-08-15 07:00:00 22.7 4 Nordeste 9 Nordeste 0 -- -- 79
2017-08-15 06:00:00 22.4 3 Nordeste 11 Nordeste 0 -- -- 79
2017-08-15 05:00:00 22.6 4 Nordeste 9 Nordeste 0 -- -- 79
2017-08-15 04:00:00 23.3 2 Nordeste 5 Este 0 -- -- 80
2017-08-15 03:00:00 23.5 0 Calma 3 Este 0 -- -- 79
2017-08-15 02:00:00 23.9 0 Calma 6 Sudeste 0 -- -- 77
2017-08-15 01:00:00 24.1 3 Este 6 Este 0 -- -- 75
2017-08-15 00:00:00 24.5 3 Este 6 Sudeste 0 -- -- 72
2017-08-14 23:00:00 25 0 Calma 6 Sudeste 0 -- -- 69
2017-08-14 22:00:00 25.4 2 Este 11 Sudoeste 0 -- -- 66
2017-08-14 21:00:00 25.9 5 Sudoeste 12 Sudoeste 0 -- -- 66
2017-08-14 20:00:00 26.5 6 Sudoeste 17 Sudoeste 0 -- -- 65
2017-08-14 19:00:00 27.6 9 Sudoeste 21 Sudoeste 0 -- -- 62
2017-08-14 18:00:00 27.9 10 Sudoeste 23 Sur 0 -- -- 60
2017-08-14 17:00:00 29 7 Sudoeste 23 Sur 0 -- -- 56
2017-08-14 16:00:00 27.9 11 Sudoeste 29 Sudoeste 0 -- -- 58
2017-08-14 15:00:00 27.6 13 Sudoeste 29 Sudoeste 0 -- -- 65
2017-08-14 14:00:00 27.9 13 Sudoeste 28 Sudoeste 0 -- -- 63
2017-08-14 13:00:00 28 13 Sudoeste 32 Sudoeste 0 -- -- 62
2017-08-14 12:00:00 27.9 11 Sudoeste 23 Sudoeste 0 -- -- 62
2017-08-14 11:00:00 27.1 6 Sudoeste 17 Oeste 0 -- -- 60
2017-08-14 10:00:00 25.5 8 Oeste 18 Sudoeste 0 -- -- 63
2017-08-14 09:00:00 24 7 Oeste 15 Noroeste 0 -- -- 67
2017-08-14 08:00:00 22.9 6 Oeste 14 Oeste 0 -- -- 73
2017-08-14 07:00:00 22.4 8 Oeste 14 Oeste 0 -- -- 77
2017-08-14 06:00:00 22.7 5 Oeste 10 Oeste 0 -- -- 77
2017-08-14 05:00:00 23.1 5 Oeste 12 Oeste 0 -- -- 79
2017-08-14 04:00:00 23.3 0 Calma 5 Nordeste 0 -- -- 78
2017-08-14 03:00:00 23.6 0 Calma 7 Sudoeste 0 -- -- 75
2017-08-14 02:00:00 23.9 0 Calma 10 Oeste 0 -- -- 73
2017-08-14 01:00:00 24.5 4 Oeste 14 Oeste 0 -- -- 70
2017-08-14 00:00:00 24.4 4 Sudoeste 9 Oeste 0 -- -- 72
2017-08-13 23:00:00 24.7 4 Oeste 10 Sudoeste 0 -- -- 70
2017-08-13 22:00:00 25.1 6 Sudoeste 11 Oeste 0 -- -- 69
2017-08-13 21:00:00 25.6 6 Sudoeste 16 Sudoeste 0 -- -- 70
2017-08-13 20:00:00 26 9 Sudoeste 20 Sudoeste 0 -- -- 67
2017-08-13 19:00:00 27.1 10 Sudoeste 22 Sudoeste 0 -- -- 63
2017-08-13 18:00:00 27.5 12 Sudoeste 25 Sudoeste 0 -- -- 63
2017-08-13 17:00:00 27.6 8 Sudoeste 25 Sudoeste 0 -- -- 65
2017-08-13 16:00:00 27.8 6 Oeste 24 Sudoeste 0 -- -- 63
2017-08-13 15:00:00 27.7 6 Sudoeste 21 Sur 0 -- -- 63
2017-08-13 14:00:00 27.4 5 Noroeste 15 Oeste 0 -- -- 66
2017-08-13 13:00:00 27 7 Oeste 15 Sudoeste 0 -- -- 64
2017-08-13 12:00:00 26.7 6 Sudeste 14 Este 0 -- -- 61
2017-08-13 11:00:00 26.5 7 Sudeste 15 Sudeste 0 -- -- 54
2017-08-13 10:00:00 24.5 5 Nordeste 10 Este 0 -- -- 53
2017-08-13 09:00:00 22.6 3 Este 6 Oeste 0 -- -- 64
2017-08-13 08:00:00 21.4 5 Oeste 9 Oeste 0 -- -- 65
2017-08-13 07:00:00 20.8 2 Oeste 4 Oeste 0 -- -- 70
2017-08-13 06:00:00 21.5 3 Oeste 6 Oeste 0 -- -- 66
2017-08-13 05:00:00 21.3 2 Oeste 4 Oeste 0 -- -- 65
2017-08-13 04:00:00 22.1 3 Oeste 8 Oeste 0 -- -- 64
2017-08-13 03:00:00 22.6 3 Oeste 7 Sudoeste 0 -- -- 60
2017-08-13 02:00:00 22.7 2 Sudoeste 8 Sudoeste 0 -- -- 60
2017-08-13 01:00:00 23.1 5 Oeste 8 Oeste 0 -- -- 61
2017-08-13 00:00:00 23.2 3 Sudoeste 9 Sudoeste 0 -- -- 64
2017-08-12 23:00:00 23.7 4 Sudoeste 9 Oeste 0 -- -- 61
2017-08-12 22:00:00 23.9 4 Sudoeste 11 Sudoeste 0 -- -- 60
2017-08-12 21:00:00 24.4 6 Sudoeste 16 Sur 0 -- -- 57
2017-08-12 20:00:00 24.9 7 Sudoeste 18 Sudoeste 0 -- -- 56
2017-08-12 19:00:00 26.2 8 Sudoeste 20 Sudoeste 0 -- -- 49
2017-08-12 18:00:00 26.4 12 Sudoeste 29 Sudoeste 0 -- -- 52
2017-08-12 17:00:00 26.4 7 Oeste 25 Sudoeste 0 -- -- 64
2017-08-12 16:00:00 26.4 7 Sudoeste 24 Sudoeste 0 -- -- 62
2017-08-12 15:00:00 25.8 10 Sudoeste 25 Sudoeste 0 -- -- 63
2017-08-12 14:00:00 26 6 Nordeste 22 Este 0 -- -- 62
2017-08-12 13:00:00 26 7 Este 23 Este 0 -- -- 63
2017-08-12 12:00:00 25.9 6 Este 15 Este 0 -- -- 63
2017-08-12 11:00:00 25.5 6 Este 15 Este 0 -- -- 62
2017-08-12 10:00:00 23.9 4 Nordeste 10 Sudeste 0 -- -- 67
2017-08-12 09:00:00 21.6 5 Nordeste 11 Nordeste 0 -- -- 75
2017-08-12 08:00:00 20.7 4 Nordeste 10 Nordeste 0 -- -- 79
2017-08-12 07:00:00 21 4 Nordeste 11 Nordeste 0 -- -- 79
2017-08-12 06:00:00 21.3 5 Nordeste 12 Nordeste 0 -- -- 76
2017-08-12 05:00:00 21.5 2 Sudeste 10 Oeste 0 -- -- 72
2017-08-12 04:00:00 22.5 6 Oeste 15 Sur 0 -- -- 69
2017-08-12 03:00:00 23.3 5 Sudoeste 13 Sudoeste 0 -- -- 67
2017-08-12 02:00:00 23.1 4 Oeste 10 Sur 0 -- -- 64
2017-08-12 01:00:00 23.3 4 Norte 10 Noroeste 0 -- -- 66
2017-08-12 00:00:00 23.4 4 Este 15 Sudeste 0 -- -- 63
2017-08-11 23:00:00 23.3 4 Nordeste 21 Este 0 -- -- 60
2017-08-11 22:00:00 23.4 5 Este 25 Este 0 -- -- 61
2017-08-11 21:00:00 23.4 10 Este 26 Sudeste 0 -- -- 67
2017-08-11 20:00:00 23.7 9 Este 27 Este 0 -- -- 68
2017-08-11 19:00:00 24.1 9 Este 24 Sudeste 0 -- -- 66
2017-08-11 18:00:00 24.5 6 Este 22 Sudeste 0 -- -- 62
2017-08-11 17:00:00 25.3 6 Este 22 Sudoeste 0 -- -- 61
2017-08-11 16:00:00 24.5 5 Oeste 23 Sudoeste 0 -- -- 61
2017-08-11 15:00:00 25 6 Sudoeste 21 Sudoeste 0 -- -- 57
2017-08-11 14:00:00 23.6 9 Sudoeste 19 Sudoeste 0 -- -- 61
2017-08-11 13:00:00 24.4 5 Este 17 Sudeste 0 -- -- 58
2017-08-11 12:00:00 23.9 7 Este 14 Sudoeste 0 -- -- 56
2017-08-11 11:00:00 23.1 5 Oeste 11 Sudoeste 0 -- -- 52
2017-08-11 10:00:00 21.8 4 Sudoeste 15 Nordeste 0 -- -- 52
2017-08-11 09:00:00 20.1 5 Oeste 12 Sudoeste 0 -- -- 53
2017-08-11 08:00:00 19.2 5 Oeste 11 Oeste 0 -- -- 57
2017-08-11 07:00:00 19 3 Sudoeste 14 Oeste 0 -- -- 58
2017-08-11 06:00:00 19.6 3 Oeste 9 Oeste 0 -- -- 55
2017-08-11 05:00:00 20 2 Nordeste 13 Nordeste 0 -- -- 62
2017-08-11 04:00:00 20.7 6 Nordeste 13 Nordeste 0 -- -- 66
2017-08-11 03:00:00 21.1 4 Nordeste 11 Nordeste 0 -- -- 65
2017-08-11 02:00:00 21.3 7 Nordeste 13 Nordeste 0 -- -- 64
2017-08-11 01:00:00 21.8 4 Nordeste 16 Nordeste 0 -- -- 68
2017-08-11 00:00:00 22.2 6 Nordeste 27 Nordeste 0 -- -- 63
2017-08-10 23:00:00 24.2 10 Nordeste 23 Nordeste 0 -- -- 64
2017-08-10 22:00:00 24.5 9 Oeste 21 Oeste 0 -- -- 63
2017-08-10 21:00:00 24.8 6 Sudoeste 23 Oeste 0 -- -- 59
2017-08-10 20:00:00 24.8 11 Oeste 35 Oeste 0 -- -- 52
2017-08-10 19:00:00 25.3 16 Sudoeste 31 Sur 0 -- -- 48
2017-08-10 18:00:00 25.8 16 Oeste 35 Sudoeste 0 -- -- 45
2017-08-10 17:00:00 26.1 14 Sudoeste 37 Sudoeste 0 -- -- 44
2017-08-10 16:00:00 25.8 14 Sudoeste 28 Sur 0 -- -- 44
2017-08-10 15:00:00 24.9 15 Sudoeste 32 Sudoeste 0 -- -- 48
2017-08-10 14:00:00 25.7 9 Oeste 21 Nordeste 0 -- -- 40
2017-08-10 13:00:00 24.5 7 Nordeste 17 Oeste 0 -- -- 40
2017-08-10 12:00:00 23.8 4 Sudoeste 14 Oeste 0 -- -- 52
2017-08-10 11:00:00 21.2 8 Oeste 17 Oeste 0 -- -- 60
2017-08-10 10:00:00 19.9 6 Oeste 12 Oeste 0 -- -- 64
2017-08-10 09:00:00 19.1 6 Oeste 14 Oeste 0 -- -- 67
2017-08-10 08:00:00 18.8 2 Sudoeste 16 Oeste 0 -- -- 69
2017-08-10 07:00:00 18.7 6 Oeste 15 Oeste 0 -- -- 71
2017-08-10 06:00:00 19 8 Oeste 13 Oeste 0 -- -- 72
2017-08-10 05:00:00 19.2 5 Oeste 8 Norte 0 -- -- 76
2017-08-10 04:00:00 19.2 3 Nordeste 11 Nordeste 0.2 -- -- 78
2017-08-10 03:00:00 19.4 4 Oeste 21 Noroeste 0 -- -- 81
2017-08-10 02:00:00 19.3 2 Oeste 11 Oeste 0.2 -- -- 79
2017-08-10 01:00:00 19.5 8 Oeste 15 Oeste 0.2 -- -- 78
2017-08-10 00:00:00 19.8 6 Oeste 17 Oeste 1 -- -- 81
2017-08-09 23:00:00 20.6 12 Oeste 22 Oeste 0 -- -- 77
2017-08-09 22:00:00 20.7 4 Nordeste 26 Norte 0 -- -- 77
2017-08-09 21:00:00 24 4 Oeste 14 Nordeste 0 -- -- 61
2017-08-09 20:00:00 24.3 9 Este 22 Sudeste 0 -- -- 53
2017-08-09 19:00:00 24.7 10 Este 28 Este 0 -- -- 55
2017-08-09 18:00:00 25.4 11 Este 32 Sudeste 0 -- -- 55
2017-08-09 17:00:00 26 9 Este 24 Sudeste 0 -- -- 57
2017-08-09 16:00:00 25.2 6 Este 18 Sudeste 0 -- -- 60
2017-08-09 15:00:00 25.7 9 Este 18 Sudeste 0 -- -- 59
2017-08-09 14:00:00 25.8 8 Este 19 Sudeste 0 -- -- 61
2017-08-09 13:00:00 25.9 7 Este 17 Este 0 -- -- 59
2017-08-09 12:00:00 25.9 6 Este 17 Sudeste 0 -- -- 57
2017-08-09 11:00:00 25.2 4 Este 12 Este 0 -- -- 52
2017-08-09 10:00:00 24.7 4 Este 12 Sudeste 0 -- -- 55
2017-08-09 09:00:00 22.5 3 Este 12 Nordeste 0 -- -- 58
2017-08-09 08:00:00 21.1 6 Nordeste 17 Nordeste 0 -- -- 65
2017-08-09 07:00:00 21.6 5 Nordeste 15 Nordeste 0 -- -- 63
2017-08-09 06:00:00 21.9 3 Este 9 Nordeste 0 -- -- 63
2017-08-09 05:00:00 21.7 4 Nordeste 8 Nordeste 0 -- -- 61
2017-08-09 04:00:00 22.4 2 Sur 7 Nordeste 0 -- -- 62
2017-08-09 03:00:00 23.3 3 Nordeste 10 Norte 0 -- -- 53
2017-08-09 02:00:00 23.6 5 Nordeste 14 Nordeste 0 -- -- 54
2017-08-09 01:00:00 23.6 2 Sudoeste 6 Sudeste 0 -- -- 64
2017-08-09 00:00:00 24.1 2 Este 14 Este 0 -- -- 60
2017-08-08 23:00:00 24.7 3 Este 12 Este 0 -- -- 55
2017-08-08 22:00:00 25.1 6 Este 13 Este 0 -- -- 56
2017-08-08 21:00:00 25.2 7 Sudeste 15 Sudeste 0 -- -- 63
2017-08-08 20:00:00 25.5 6 Este 19 Sudeste 0 -- -- 62
2017-08-08 19:00:00 26.1 6 Este 22 Sudeste 0 -- -- 59
2017-08-08 18:00:00 26.8 9 Este 23 Sudeste 0 -- -- 58
2017-08-08 17:00:00 26.7 8 Este 22 Sudeste 0 -- -- 58
2017-08-08 16:00:00 26.2 8 Este 20 Sudeste 0.2 -- -- 61
2017-08-08 15:00:00 26.8 6 Este 20 Este 0.8 -- -- 66
2017-08-08 14:00:00 25.1 7 Este 23 Este 1.8 -- -- 81
2017-08-08 13:00:00 25.4 9 Este 37 Este 0 -- -- 72
2017-08-08 12:00:00 25.1 15 Este 32 Este 0 -- -- 75
2017-08-08 11:00:00 25.2 13 Este 40 Sudeste 0 -- -- 79
2017-08-08 10:00:00 27.8 9 Este 22 Sudeste 0 -- -- 83
2017-08-08 09:00:00 27.4 6 Sudoeste 16 Oeste 0 -- -- 86
2017-08-08 08:00:00 26.8 2 Nordeste 15 Sudoeste 0 -- -- 88
2017-08-08 07:00:00 27.3 7 Sudoeste 18 Sudoeste 0 -- -- 85
2017-08-08 06:00:00 27.2 6 Sudoeste 16 Oeste 0 -- -- 85
2017-08-08 05:00:00 27.1 8 Sudoeste 15 Oeste 0 -- -- 85
2017-08-08 04:00:00 27 5 Oeste 17 Sudoeste 0 -- -- 85
2017-08-08 03:00:00 27.1 5 Oeste 15 Oeste 0 -- -- 84
2017-08-08 02:00:00 27.3 7 Sudoeste 15 Sudoeste 0 -- -- 83
2017-08-08 01:00:00 27.1 4 Sudeste 12 Sur 0 -- -- 82
2017-08-08 00:00:00 27.4 4 Oeste 15 Sudoeste 0 -- -- 78
2017-08-07 23:00:00 27.4 7 Oeste 15 Sudoeste 0 -- -- 75
2017-08-07 22:00:00 27.4 6 Oeste 14 Sudoeste 0 -- -- 73
2017-08-07 21:00:00 27.5 6 Sudoeste 20 Sur 0 -- -- 74
2017-08-07 20:00:00 28.1 8 Sudoeste 17 Sudoeste 0 -- -- 68
2017-08-07 19:00:00 29.6 6 Sudoeste 18 Sudoeste 0 -- -- 64
2017-08-07 18:00:00 30.4 5 Oeste 20 Sudoeste 0 -- -- 62
2017-08-07 17:00:00 29.8 9 Sudoeste 26 Sudoeste 0 -- -- 60
2017-08-07 16:00:00 29 14 Sudoeste 31 Sudoeste 0 -- -- 59
2017-08-07 15:00:00 29.4 13 Sudoeste 30 Sur 0 -- -- 65
2017-08-07 14:00:00 29 11 Sudoeste 29 Sudoeste 0 -- -- 63
2017-08-07 13:00:00 28.7 10 Sudoeste 28 Sudoeste 0 -- -- 67
2017-08-07 12:00:00 29 10 Sudoeste 27 Sudoeste 0 -- -- 64
2017-08-07 11:00:00 28.4 11 Oeste 20 Oeste 0 -- -- 64
2017-08-07 10:00:00 27.6 9 Sudoeste 18 Sudoeste 0 -- -- 66
2017-08-07 09:00:00 26.4 8 Sudoeste 14 Sudoeste 0 -- -- 69
2017-08-07 08:00:00 25.3 4 Oeste 8 Oeste 0 -- -- 71
2017-08-07 07:00:00 25 4 Oeste 6 Oeste 0 -- -- 74
2017-08-07 06:00:00 25.3 3 Sudoeste 5 Oeste 0 -- -- 70
2017-08-07 05:00:00 25 0 Calma 4 Sudoeste 0 -- -- 73
2017-08-07 04:00:00 25.3 0 Calma 6 Sudoeste 0 -- -- 72
2017-08-07 03:00:00 25.5 3 Sudoeste 7 Oeste 0 -- -- 72
2017-08-07 02:00:00 25.8 4 Sudoeste 8 Oeste 0 -- -- 71
2017-08-07 01:00:00 25.9 3 Sudoeste 9 Sudoeste 0 -- -- 72
2017-08-07 00:00:00 26 4 Sudoeste 9 Oeste 0 -- -- 70
2017-08-06 23:00:00 26.1 5 Oeste 10 Sudoeste 0 -- -- 71
2017-08-06 22:00:00 26.2 6 Oeste 13 Sudoeste 0 -- -- 71
2017-08-06 21:00:00 26.5 6 Sudoeste 18 Sudoeste 0 -- -- 70
2017-08-06 20:00:00 27 8 Sudoeste 19 Sur 0 -- -- 69
2017-08-06 19:00:00 27.8 9 Sudoeste 22 Sudoeste 0 -- -- 67
2017-08-06 18:00:00 28.6 9 Sudoeste 22 Sudoeste 0 -- -- 66
2017-08-06 17:00:00 29.3 6 Sudoeste 22 Sudoeste 0 -- -- 65
2017-08-06 16:00:00 29 6 Oeste 18 Sudoeste 0 -- -- 68
2017-08-06 15:00:00 28.7 5 Noroeste 20 Sudoeste 0 -- -- 71
2017-08-06 14:00:00 29.9 6 Noroeste 18 Sudoeste 0 -- -- 69
2017-08-06 13:00:00 29 8 Sudoeste 22 Sudoeste 0 -- -- 71
2017-08-06 12:00:00 29.8 4 Noroeste 13 Sudoeste 0 -- -- 72
2017-08-06 11:00:00 29 3 Sudeste 13 Sudeste 0 -- -- 75
2017-08-06 10:00:00 27.3 2 Sudeste 8 Este 0 -- -- 77
2017-08-06 09:00:00 26.1 3 Sudeste 6 Sudeste 0.2 -- -- 81
2017-08-06 08:00:00 25.6 3 Sudeste 8 Sudeste 0 -- -- 86
2017-08-06 07:00:00 26.5 0 Calma 7 Este 0 -- -- 82
2017-08-06 06:00:00 26.7 2 Sudeste 6 Este 0 -- -- 82
2017-08-06 05:00:00 27 2 Este 7 Oeste 0 -- -- 82
2017-08-06 04:00:00 27.3 0 Calma 10 Nordeste 0 -- -- 78
2017-08-06 03:00:00 26.8 0 Calma 6 Sudeste 0 -- -- 89
2017-08-06 02:00:00 27.1 3 Este 6 Sudoeste 0 -- -- 88
2017-08-06 01:00:00 27.3 3 Este 7 Sudeste 0 -- -- 87
2017-08-06 00:00:00 27.7 2 Este 8 Sudeste 0 -- -- 84
2017-08-05 23:00:00 28.1 4 Oeste 8 Oeste 0 -- -- 78
2017-08-05 22:00:00 28.6 3 Este 14 Oeste 0 -- -- 78
2017-08-05 21:00:00 29.2 7 Oeste 17 Oeste 0 -- -- 69
2017-08-05 20:00:00 30.2 12 Sudoeste 24 Sudoeste 0 -- -- 64
2017-08-05 19:00:00 31.3 12 Oeste 31 Oeste 0 -- -- 59
2017-08-05 18:00:00 32.4 15 Sudoeste 30 Sudoeste 0 -- -- 54
2017-08-05 17:00:00 32.6 15 Oeste 31 Oeste 0 -- -- 51
2017-08-05 16:00:00 32.8 15 Oeste 32 Sudoeste 0 -- -- 53
2017-08-05 15:00:00 33.1 15 Oeste 31 Sudoeste 0 -- -- 49
2017-08-05 14:00:00 33.2 13 Oeste 27 Sudoeste 0 -- -- 48
2017-08-05 13:00:00 32.9 10 Sudoeste 24 Sudoeste 0 -- -- 48
2017-08-05 12:00:00 31.7 4 Este 12 Sudeste 0 -- -- 58
2017-08-05 11:00:00 30.8 6 Sudeste 9 Sudeste 0 -- -- 64
2017-08-05 10:00:00 29.4 5 Este 9 Este 0 -- -- 64
2017-08-05 09:00:00 27 2 Sudeste 7 Sudeste 0 -- -- 71
2017-08-05 08:00:00 26.1 2 Este 5 Este 0 -- -- 77
2017-08-05 07:00:00 26.4 0 Calma 4 Nordeste 0 -- -- 73
2017-08-05 06:00:00 27.1 2 Este 6 Oeste 0 -- -- 69
2017-08-05 05:00:00 27.6 3 Oeste 7 Oeste 0 -- -- 66
2017-08-05 04:00:00 27.7 2 Sudoeste 5 Sudoeste 0 -- -- 69
2017-08-05 03:00:00 28.2 4 Oeste 9 Oeste 0 -- -- 65
2017-08-05 02:00:00 28.5 3 Oeste 7 Sudoeste 0 -- -- 61
2017-08-05 01:00:00 28.6 4 Oeste 8 Oeste 0 -- -- 66
2017-08-05 00:00:00 28.6 5 Oeste 9 Oeste 0 -- -- 67
2017-08-04 23:00:00 28.7 5 Oeste 10 Oeste 0 -- -- 69
2017-08-04 22:00:00 28.5 5 Oeste 8 Oeste 0 -- -- 67
2017-08-04 21:00:00 28.6 2 Oeste 10 Sudoeste 0 -- -- 75
2017-08-04 20:00:00 29.1 3 Este 13 Sudeste 0 -- -- 75
2017-08-04 19:00:00 30.8 4 Este 20 Sudoeste 0 -- -- 70
2017-08-04 18:00:00 31.5 8 Sudoeste 24 Sur 0 -- -- 56
2017-08-04 17:00:00 33.2 5 Oeste 24 Sudoeste 0 -- -- 54
2017-08-04 16:00:00 33.7 8 Sudoeste 20 Sudoeste 0 -- -- 50
2017-08-04 15:00:00 34.2 6 Sudoeste 20 Sudoeste 0 -- -- 46
2017-08-04 14:00:00 33.5 9 Sudoeste 21 Sur 0 -- -- 45
2017-08-04 13:00:00 34.2 5 Sudoeste 13 Sudoeste 0 -- -- 43
2017-08-04 12:00:00 32.7 5 Sudoeste 12 Sudoeste 0 -- -- 51
2017-08-04 11:00:00 30.8 4 Este 10 Este 0 -- -- 61
2017-08-04 10:00:00 29.5 4 Este 8 Sudoeste 0 -- -- 63
2017-08-04 09:00:00 26.7 2 Este 6 Este 0 -- -- 72
2017-08-04 08:00:00 25.6 0 Calma 3 Oeste 0 -- -- 78
2017-08-04 07:00:00 25.4 0 Calma 4 Oeste 0 -- -- 83
2017-08-04 06:00:00 25.7 0 Calma 5 Norte 0 -- -- 81
2017-08-04 05:00:00 25.7 0 Calma 6 Norte 0 -- -- 81
2017-08-04 04:00:00 25.6 2 Este 8 Nordeste 0 -- -- 83
2017-08-04 03:00:00 25.6 2 Este 5 Este 0 -- -- 86
2017-08-04 02:00:00 25.8 2 Este 5 Sudeste 0 -- -- 88
2017-08-04 01:00:00 26.1 2 Este 9 Sudeste 0.2 -- -- 89
2017-08-04 00:00:00 26.4 4 Este 9 Este 0 -- -- 89
2017-08-03 23:00:00 26.5 3 Sudeste 9 Sudeste 0.2 -- -- 88
2017-08-03 22:00:00 26.7 3 Este 9 Sudeste 0 -- -- 87
2017-08-03 21:00:00 26.8 5 Este 12 Este 0.2 -- -- 85
2017-08-03 20:00:00 27.6 5 Este 14 Sudeste 0 -- -- 82
2017-08-03 19:00:00 28.5 5 Sudeste 14 Sudeste 0 -- -- 77
2017-08-03 18:00:00 28.8 4 Este 14 Sudeste 0 -- -- 76
2017-08-03 17:00:00 28.4 8 Este 19 Sudeste 0 -- -- 76
2017-08-03 16:00:00 27.5 6 Este 18 Sudeste 0 -- -- 81
2017-08-03 15:00:00 26.9 9 Este 18 Sudeste 0 -- -- 84
2017-08-03 14:00:00 26.1 6 Este 16 Sudeste 0 -- -- 88
2017-08-03 13:00:00 26.6 7 Este 20 Sudeste 0 -- -- 85
2017-08-03 12:00:00 28 10 Este 21 Sudeste 0 -- -- 81
2017-08-03 11:00:00 30.6 5 Este 18 Sudeste 0 -- -- 72
2017-08-03 10:00:00 31.9 6 Nordeste 15 Nordeste 0 -- -- 47
2017-08-03 09:00:00 28.8 5 Nordeste 10 Nordeste 0 -- -- 56
2017-08-03 08:00:00 26.5 2 Noroeste 9 Oeste 0 -- -- 73
2017-08-03 07:00:00 26.4 4 Oeste 8 Oeste 0 -- -- 82
2017-08-03 06:00:00 26.4 2 Sudoeste 9 Oeste 0 -- -- 81
2017-08-03 05:00:00 26.7 2 Norte 11 Norte 0 -- -- 83
2017-08-03 04:00:00 26.2 0 Calma 5 Este 0 -- -- 94
2017-08-03 03:00:00 26.6 3 Este 7 Este 0 -- -- 91
2017-08-03 02:00:00 26.7 3 Oeste 8 Sudoeste 0 -- -- 82
2017-08-03 01:00:00 27 2 Este 8 Este 0 -- -- 87
2017-08-03 00:00:00 27.3 2 Este 9 Este 0 -- -- 87
2017-08-02 23:00:00 28.1 0 Calma 4 Sur 0 -- -- 80
2017-08-02 22:00:00 28.3 2 Sudeste 4 Este 0 -- -- 80
2017-08-02 21:00:00 28.3 3 Este 9 Oeste 0 -- -- 80
2017-08-02 20:00:00 30 5 Sudeste 10 Este 0 -- -- 75
2017-08-02 19:00:00 31.4 8 Oeste 26 Oeste 0 -- -- 58
2017-08-02 18:00:00 30.5 4 Sudeste 10 Este 0 -- -- 72
2017-08-02 17:00:00 28.7 5 Este 13 Este 0 -- -- 77
2017-08-02 16:00:00 28.4 5 Este 15 Este 0 -- -- 79
2017-08-02 15:00:00 28.3 6 Este 18 Sudeste 0 -- -- 79
2017-08-02 14:00:00 28.7 7 Este 24 Sudeste 0 -- -- 73
2017-08-02 13:00:00 28.6 7 Este 20 Sudeste 0 -- -- 74
2017-08-02 12:00:00 28.7 9 Este 18 Este 0 -- -- 70
2017-08-02 11:00:00 28.9 5 Este 11 Sudeste 0 -- -- 70
2017-08-02 10:00:00 28.2 6 Sudeste 13 Este 0 -- -- 68
2017-08-02 09:00:00 26.2 2 Sudeste 7 Sudeste 0.2 -- -- 72
2017-08-02 08:00:00 24.8 0 Calma 6 Nordeste 0 -- -- 74
2017-08-02 07:00:00 25.2 3 Nordeste 10 Norte 0 -- -- 74
2017-08-02 06:00:00 25.3 4 Nordeste 8 Nordeste 0 -- -- 75
2017-08-02 05:00:00 25.7 2 Nordeste 10 Nordeste 0 -- -- 77
2017-08-02 04:00:00 25.9 0 Calma 5 Oeste 0 -- -- 72
2017-08-02 03:00:00 26.4 0 Calma 8 Norte 0 -- -- 75
2017-08-02 02:00:00 26.5 3 Norte 9 Norte 0 -- -- 77
2017-08-02 01:00:00 26.2 0 Calma 5 Oeste 0 -- -- 83
2017-08-02 00:00:00 26.4 0 Calma 8 Nordeste 0 -- -- 84
2017-08-01 23:00:00 26.3 4 Nordeste 12 Nordeste 0 -- -- 86
2017-08-01 22:00:00 26 3 Este 17 Nordeste 0 -- -- 89
2017-08-01 21:00:00 25.9 5 Este 20 Sudeste 0 -- -- 90
2017-08-01 20:00:00 26 9 Este 26 Sudeste 0 -- -- 91
2017-08-01 19:00:00 26.3 5 Este 15 Sudeste 0 -- -- 90
2017-08-01 18:00:00 26.7 4 Este 15 Este 0 -- -- 88
2017-08-01 17:00:00 26.5 5 Nordeste 13 Sudeste 0 -- -- 90
2017-08-01 16:00:00 27.1 7 Sudeste 23 Sudeste 0 -- -- 87
2017-08-01 15:00:00 28.1 10 Este 24 Este 0 -- -- 81
2017-08-01 14:00:00 -- 6 Sudeste 17 Sudeste 0 -- -- --
2017-08-01 13:00:00 27.6 6 Nordeste 14 Sudeste 0 -- -- 79
2017-08-01 12:00:00 26.9 5 Este 15 Este 0 -- -- 81
2017-08-01 11:00:00 27.7 5 Este 15 Nordeste 0 -- -- 79
2017-08-01 10:00:00 26.6 5 Este 18 Nordeste 0 -- -- 81
2017-08-01 09:00:00 25.6 6 Este 18 Este 0 -- -- 86
2017-08-01 08:00:00 25.1 5 Este 16 Nordeste 0 -- -- 88
2017-08-01 07:00:00 25.2 5 Nordeste 17 Nordeste 0 -- -- 88
2017-08-01 06:00:00 25.3 5 Este 21 Este 0 -- -- 86
2017-08-01 05:00:00 25.7 8 Nordeste 22 Nordeste 0 -- -- 87
2017-08-01 04:00:00 25.8 6 Este 18 Este 0 -- -- 88
2017-08-01 03:00:00 25.8 6 Nordeste 17 Este 0 -- -- 88
2017-08-01 02:00:00 26 7 Este 20 Este 0 -- -- 88
2017-08-01 01:00:00 26.1 4 Nordeste 21 Sudeste 0 -- -- 87
2017-08-01 00:00:00 26.2 8 Este 21 Este 0 -- -- 87
2017-07-31 23:00:00 26.1 8 Este 22 Este 0 -- -- 89
2017-07-31 22:00:00 26.1 9 Este 24 Nordeste 0 -- -- 89
2017-07-31 21:00:00 26.2 8 Este 22 Nordeste 0 -- -- 87
2017-07-31 20:00:00 26.5 9 Este 26 Este 0 -- -- 84
2017-07-31 19:00:00 27.5 8 Nordeste 23 Este 0 -- -- 79
2017-07-31 18:00:00 28 10 Este 27 Sudeste 0 -- -- 76
2017-07-31 17:00:00 28.4 9 Este 28 Este 0 -- -- 75
2017-07-31 16:00:00 28.6 12 Este 25 Este 0 -- -- 74
2017-07-31 15:00:00 28.5 9 Este 25 Sudeste 0 -- -- 74
2017-07-31 14:00:00 27.7 9 Este 22 Sudeste 0 -- -- 77
2017-07-31 13:00:00 28.2 10 Este 25 Este 0 -- -- 76
2017-07-31 12:00:00 27.5 11 Este 28 Este 0 -- -- 75
2017-07-31 11:00:00 26.8 10 Este 27 Este 0 -- -- 75
2017-07-31 10:00:00 26.4 12 Este 28 Este 0.2 -- -- 74
2017-07-31 09:00:00 25.3 6 Este 22 Sudeste 0 -- -- 77
2017-07-31 08:00:00 24.5 8 Este 22 Este 0 -- -- 80
2017-07-31 07:00:00 24.7 7 Este 23 Sudeste 0 -- -- 82
2017-07-31 06:00:00 24.7 4 Este 21 Este 0 -- -- 82
2017-07-31 05:00:00 24.7 7 Este 25 Sudeste 0 -- -- 84
2017-07-31 04:00:00 24.9 5 Este 17 Sudeste 0 -- -- 84
2017-07-31 03:00:00 25.3 5 Este 19 Este 0 -- -- 86
2017-07-31 02:00:00 25.4 5 Nordeste 15 Este 0 -- -- 83
2017-07-31 01:00:00 25.7 6 Nordeste 14 Nordeste 0 -- -- 89
2017-07-31 00:00:00 25.8 4 Nordeste 12 Este 0 -- -- 87
2017-07-30 23:00:00 25.7 5 Este 12 Este 0 -- -- 88
2017-07-30 22:00:00 25.9 5 Este 14 Este 0 -- -- 87
2017-07-30 21:00:00 26.2 5 Este 14 Este 0 -- -- 85
2017-07-30 20:00:00 26.7 7 Este 18 Este 0 -- -- 84
2017-07-30 19:00:00 27.4 8 Este 20 Nordeste 0 -- -- 82
2017-07-30 18:00:00 28 9 Este 26 Sudeste 0 -- -- 79
2017-07-30 17:00:00 28.6 9 Este 20 Este 0 -- -- 76
2017-07-30 16:00:00 29.2 7 Este 18 Sudeste 0 -- -- 74
2017-07-30 15:00:00 29.4 7 Este 18 Sudeste 0 -- -- 71
2017-07-30 14:00:00 29 8 Este 17 Sudeste 0 -- -- 71
2017-07-30 13:00:00 28.8 7 Este 18 Sudeste 0 -- -- 74
2017-07-30 12:00:00 28.7 8 Sudeste 17 Sudeste 0 -- -- 75
2017-07-30 11:00:00 28.5 7 Sudeste 16 Sudeste 0 -- -- 72
2017-07-30 10:00:00 27.7 5 Sudeste 10 Sudeste 0 -- -- 64
2017-07-30 09:00:00 25.4 3 Sudeste 8 Sudeste 0 -- -- 72
2017-07-30 08:00:00 24 2 Este 3 Sudeste 0 -- -- 74
2017-07-30 07:00:00 23.8 0 Calma 3 Este 0 -- -- 77
2017-07-30 06:00:00 24.3 0 Calma 4 Nordeste 0 -- -- 76
2017-07-30 05:00:00 24.7 0 Calma 4 Sudoeste 0 -- -- 77
2017-07-30 04:00:00 25.2 2 Sudoeste 5 Oeste 0 -- -- 81
2017-07-30 03:00:00 25.4 4 Sudoeste 6 Sudoeste 0 -- -- 85
2017-07-30 02:00:00 25.6 3 Sudoeste 8 Oeste 0 -- -- 84
2017-07-30 01:00:00 25.7 4 Oeste 9 Sudoeste 0 -- -- 81
2017-07-30 00:00:00 26.1 4 Oeste 8 Oeste 0 -- -- 79
2017-07-29 23:00:00 26.4 4 Sudoeste 8 Oeste 0 -- -- 81
2017-07-29 22:00:00 26.6 5 Sudoeste 12 Sudoeste 0 -- -- 79
2017-07-29 21:00:00 27.2 5 Oeste 16 Sur 0 -- -- 77
2017-07-29 20:00:00 27.8 5 Sudoeste 14 Sudoeste 0 -- -- 75
2017-07-29 19:00:00 28.8 5 Noroeste 13 Oeste 0 -- -- 69
2017-07-29 18:00:00 28.8 5 Noroeste 17 Sudoeste 0 -- -- 76
2017-07-29 17:00:00 29.1 5 Oeste 12 Sudoeste 0 -- -- 75
2017-07-29 16:00:00 28.6 6 Este 17 Este 0 -- -- 75
2017-07-29 15:00:00 28.2 6 Este 15 Sudeste 0 -- -- 76
2017-07-29 14:00:00 27.7 6 Este 18 Este 0 -- -- 77
2017-07-29 13:00:00 27.7 6 Sudeste 17 Este 0 -- -- 75
2017-07-29 12:00:00 27.5 10 Sudeste 16 Sudeste 0 -- -- 75
2017-07-29 11:00:00 27 7 Sudeste 15 Sudeste 0 -- -- 77
2017-07-29 10:00:00 26.4 6 Sudeste 11 Sudeste 0 -- -- 77
2017-07-29 09:00:00 24.3 4 Este 8 Nordeste 0 -- -- 82
2017-07-29 08:00:00 23.6 4 Nordeste 8 Nordeste 0 -- -- 85
2017-07-29 07:00:00 23.4 3 Este 5 Nordeste 0 -- -- 86
2017-07-29 06:00:00 23.6 0 Calma 5 Este 0 -- -- 86
2017-07-29 05:00:00 23.9 2 Este 7 Nordeste 0 -- -- 84
2017-07-29 04:00:00 24.1 3 Este 8 Nordeste 0 -- -- 82
2017-07-29 03:00:00 24.4 4 Nordeste 11 Nordeste 0 -- -- 83
2017-07-29 02:00:00 24.6 3 Este 10 Este 0 -- -- 85
2017-07-29 01:00:00 24.9 4 Este 12 Este 0 -- -- 83
2017-07-29 00:00:00 25 5 Este 14 Sudeste 0 -- -- 82
2017-07-28 23:00:00 25.4 6 Este 16 Este 0 -- -- 81
2017-07-28 22:00:00 25.7 5 Este 15 Este 0 -- -- 81
2017-07-28 21:00:00 25.7 6 Este 14 Este 0 -- -- 80
2017-07-28 20:00:00 26.2 4 Este 15 Sudeste 0 -- -- 76
2017-07-28 19:00:00 27 8 Este 18 Este 0 -- -- 71
2017-07-28 18:00:00 27.8 8 Este 21 Sudeste 0 -- -- 66
2017-07-28 17:00:00 27.7 9 Sudeste 22 Sudeste 0 -- -- 66
2017-07-28 16:00:00 28 12 Este 24 Este 0 -- -- 66
2017-07-28 15:00:00 28.3 7 Este 20 Este 0 -- -- 68
2017-07-28 14:00:00 28.5 7 Sudeste 19 Sudeste 0 -- -- 66
2017-07-28 13:00:00 28.6 7 Este 21 Sudeste 0 -- -- 74
2017-07-28 12:00:00 28.4 7 Este 18 Sudeste 0 -- -- 74
2017-07-28 11:00:00 28.2 6 Este 13 Este 0 -- -- 75
2017-07-28 10:00:00 27.2 6 Este 14 Sudeste 0 -- -- 80
2017-07-28 09:00:00 25.6 5 Este 12 Este 0 -- -- 87
2017-07-28 08:00:00 24.8 3 Este 8 Este 0 -- -- 89
2017-07-28 07:00:00 24.8 2 Nordeste 6 Este 0 -- -- 90
2017-07-28 06:00:00 25 3 Este 6 Sudeste 0 -- -- 90
2017-07-28 05:00:00 24.9 2 Sudeste 5 Sudoeste 0 -- -- 90
2017-07-28 04:00:00 25.1 0 Calma 5 Sudoeste 0 -- -- 90
2017-07-28 03:00:00 25.2 3 Sudoeste 5 Sudoeste 0 -- -- 89
2017-07-28 02:00:00 25.4 2 Sudoeste 6 Oeste 0 -- -- 84
2017-07-28 01:00:00 25.7 3 Sudoeste 9 Oeste 0 -- -- 83
2017-07-28 00:00:00 25.9 3 Sudoeste 15 Oeste 0.2 -- -- 84
2017-07-27 23:00:00 26.1 8 Oeste 18 Oeste 0 -- -- 82
2017-07-27 22:00:00 26.5 4 Sudoeste 20 Oeste 0 -- -- 79
2017-07-27 21:00:00 27.1 9 Oeste 24 Sudoeste 0 -- -- 77
2017-07-27 20:00:00 27.7 10 Sudoeste 30 Sudoeste 0 -- -- 74
2017-07-27 19:00:00 28.1 15 Oeste 29 Sudoeste 0 -- -- 73
2017-07-27 18:00:00 28.4 17 Oeste 29 Oeste 0 -- -- 71
2017-07-27 17:00:00 29.1 12 Sudoeste 28 Sur 0 -- -- 68
2017-07-27 16:00:00 28.7 14 Sudoeste 28 Sur 0 -- -- 66
2017-07-27 15:00:00 28.5 8 Sudoeste 28 Sudoeste 0 -- -- 67
2017-07-27 14:00:00 28 15 Sudoeste 28 Sudoeste 0 -- -- 67
2017-07-27 13:00:00 27.4 13 Sudoeste 26 Sur 0 -- -- 69
2017-07-27 12:00:00 26.8 9 Sudoeste 26 Sudoeste 0 -- -- 69
2017-07-27 11:00:00 26.7 9 Sudoeste 19 Sudoeste 0 -- -- 67
2017-07-27 10:00:00 25.7 5 Oeste 14 Sudoeste 0 -- -- 67
2017-07-27 09:00:00 24 5 Oeste 11 Oeste 0 -- -- 71
2017-07-27 08:00:00 22.5 2 Sudoeste 5 Oeste 0 -- -- 74
2017-07-27 07:00:00 22.2 3 Oeste 5 Oeste 0 -- -- 72
2017-07-27 06:00:00 22.2 3 Oeste 4 Oeste 0 -- -- 69
2017-07-27 05:00:00 22.4 0 Calma 4 Oeste 0 -- -- 72
2017-07-27 04:00:00 22.7 0 Calma 4 Oeste 0 -- -- 72
2017-07-27 03:00:00 23.3 2 Sudoeste 4 Oeste 0 -- -- 70
2017-07-27 02:00:00 23.6 4 Oeste 6 Oeste 0 -- -- 68
2017-07-27 01:00:00 23.8 4 Oeste 6 Oeste 0 -- -- 68
2017-07-27 00:00:00 23.8 3 Sudoeste 6 Sudoeste 0 -- -- 67
2017-07-26 23:00:00 24 0 Calma 6 Este 0 -- -- 64
2017-07-26 22:00:00 24.3 3 Sudoeste 10 Este 0 -- -- 61
2017-07-26 21:00:00 24.7 3 Sudeste 12 Sudoeste 0 -- -- 59
2017-07-26 20:00:00 25.1 4 Sudoeste 17 Sudoeste 0 -- -- 61
2017-07-26 19:00:00 26.4 4 Oeste 18 Sudoeste 0 -- -- 60
2017-07-26 18:00:00 26.7 6 Sudoeste 21 Sudoeste 0 -- -- 60
2017-07-26 17:00:00 26.2 5 Noroeste 23 Sudoeste 0 -- -- 65
2017-07-26 16:00:00 26 8 Oeste 18 Sudoeste 0 -- -- 64
2017-07-26 15:00:00 26 7 Oeste 20 Sudoeste 0 -- -- 63
2017-07-26 14:00:00 26.2 5 Noroeste 19 Sudoeste 0 -- -- 62
2017-07-26 13:00:00 25.7 7 Este 16 Sudeste 0 -- -- 65
2017-07-26 12:00:00 25 5 Este 12 Este 0 -- -- 64
2017-07-26 11:00:00 24.3 3 Sudoeste 11 Sudeste 0 -- -- 68
2017-07-26 10:00:00 22.8 4 Nordeste 14 Nordeste 0 -- -- 64
2017-07-26 09:00:00 22 5 Nordeste 13 Nordeste 0 -- -- 63
2017-07-26 08:00:00 21.3 4 Nordeste 12 Norte 0 -- -- 65
2017-07-26 07:00:00 21.8 3 Norte 14 Nordeste 0 -- -- 69
2017-07-26 06:00:00 22.3 5 Nordeste 12 Nordeste 0 -- -- 64
2017-07-26 05:00:00 22.3 5 Nordeste 10 Norte 0 -- -- 79
2017-07-26 04:00:00 22.1 3 Nordeste 13 Nordeste 0 -- -- 84
2017-07-26 03:00:00 -- 6 Nordeste 17 Nordeste 0 -- -- --
2017-07-26 02:00:00 22.1 4 Nordeste 13 Nordeste 0 -- -- 88
2017-07-26 01:00:00 22.1 6 Este 16 Nordeste 0.8 -- -- 91
2017-07-26 00:00:00 23.2 4 Noroeste 15 Sudoeste 0.8 -- -- 87
2017-07-25 23:00:00 24.8 6 Noroeste 16 Sudoeste 0 -- -- 72
2017-07-25 22:00:00 24.8 6 Oeste 18 Sudoeste 0 -- -- 69
2017-07-25 21:00:00 24.7 8 Sudoeste 20 Sudoeste 0 -- -- 68
2017-07-25 20:00:00 24.8 10 Sudoeste 27 Sudoeste 0 -- -- 68
2017-07-25 19:00:00 25.2 14 Sudoeste 28 Sur 0 -- -- 68
2017-07-25 18:00:00 25.6 12 Sudoeste 24 Sur 0 -- -- 65
2017-07-25 17:00:00 26 13 Sudoeste 35 Sudoeste 0 -- -- 64
2017-07-25 16:00:00 26.4 16 Sudoeste 33 Sudoeste 0 -- -- 61
2017-07-25 15:00:00 26.4 15 Sudoeste 32 Sudoeste 0 -- -- 60
2017-07-25 14:00:00 26.2 12 Sudoeste 27 Sudoeste 0 -- -- 60
2017-07-25 13:00:00 26.9 7 Oeste 18 Sudoeste 0 -- -- 57
2017-07-25 12:00:00 24.9 6 Sudoeste 15 Oeste 0 -- -- 61
2017-07-25 11:00:00 24.1 6 Oeste 14 Oeste 0 -- -- 59
2017-07-25 10:00:00 23.3 10 Oeste 17 Oeste 0 -- -- 56
2017-07-25 09:00:00 23 7 Oeste 14 Oeste 0 -- -- 56
2017-07-25 08:00:00 22.4 6 Oeste 19 Oeste 0 -- -- 57
2017-07-25 07:00:00 22.5 8 Oeste 19 Oeste 0 -- -- 59
2017-07-25 06:00:00 23 8 Oeste 18 Oeste 0 -- -- 59
2017-07-25 05:00:00 24 2 Nordeste 9 Nordeste 0 -- -- 71
2017-07-25 04:00:00 24.1 4 Nordeste 19 Este 0 -- -- 71
2017-07-25 03:00:00 24.5 8 Este 23 Sudeste 0 -- -- 70
2017-07-25 02:00:00 24.7 9 Este 22 Este 0 -- -- 76
2017-07-25 01:00:00 24.7 9 Este 25 Sudeste 0 -- -- 80
2017-07-25 00:00:00 25 8 Este 25 Este 0 -- -- 78
2017-07-24 23:00:00 25 6 Este 23 Este 0 -- -- 78
2017-07-24 22:00:00 25.2 8 Este 23 Este 0 -- -- 79
2017-07-24 21:00:00 25.7 7 Este 21 Nordeste 0 -- -- 75
2017-07-24 20:00:00 26.3 8 Este 25 Este 0 -- -- 70
2017-07-24 19:00:00 27.2 8 Este 24 Este 0 -- -- 64
2017-07-24 18:00:00 27.5 10 Este 25 Este 0 -- -- 61
2017-07-24 17:00:00 28.1 9 Este 22 Sudeste 0 -- -- 61
2017-07-24 16:00:00 28 10 Sudeste 19 Este 0 -- -- 58
2017-07-24 15:00:00 28.2 6 Este 16 Oeste 0 -- -- 58
2017-07-24 14:00:00 28.1 6 Oeste 24 Sudoeste 0 -- -- 58
2017-07-24 13:00:00 27.9 13 Sudoeste 22 Sudoeste 0 -- -- 50
2017-07-24 12:00:00 28.1 4 Nordeste 14 Nordeste 0 -- -- 50
2017-07-24 11:00:00 26.8 3 Este 21 Oeste 0 -- -- 53
2017-07-24 10:00:00 25.3 6 Oeste 19 Oeste 0 -- -- 58
2017-07-24 09:00:00 23.5 10 Oeste 21 Oeste 0 -- -- 62
2017-07-24 08:00:00 22.7 10 Oeste 18 Oeste 0 -- -- 66
2017-07-24 07:00:00 22.1 3 Sudoeste 7 Sudoeste 0 -- -- 85
2017-07-24 06:00:00 22.6 3 Sudoeste 7 Oeste 0 -- -- 85
2017-07-24 05:00:00 22.6 4 Oeste 8 Sudoeste 0 -- -- 84
2017-07-24 04:00:00 22.6 4 Oeste 8 Sudoeste 0 -- -- 85
2017-07-24 03:00:00 22.5 0 Calma 6 Nordeste 0 -- -- 84
2017-07-24 02:00:00 22.8 4 Nordeste 8 Nordeste 0 -- -- 83
2017-07-24 01:00:00 23 2 Sudeste 9 Nordeste 0 -- -- 85
2017-07-24 00:00:00 23.3 3 Este 14 Nordeste 0 -- -- 82
2017-07-23 23:00:00 23.5 5 Este 19 Sur 0 -- -- 82
2017-07-23 22:00:00 22.7 4 Este 9 Sudeste 0 -- -- 86
2017-07-23 21:00:00 22.7 3 Sudoeste 13 Este 0.2 -- -- 86
2017-07-23 20:00:00 21.8 4 Este 27 Oeste 1.6 -- -- 84
2017-07-23 19:00:00 25.4 10 Oeste 20 Sudoeste 0 -- -- 71
2017-07-23 18:00:00 26.5 5 Sudeste 17 Este 0 -- -- 66
2017-07-23 17:00:00 26.1 5 Nordeste 19 Sudeste 0 -- -- 68
2017-07-23 16:00:00 27 10 Este 22 Este 0 -- -- 64
2017-07-23 15:00:00 27 5 Nordeste 21 Sudeste 0 -- -- 65
2017-07-23 14:00:00 27.5 10 Sudeste 23 Sudeste 0 -- -- 65
2017-07-23 13:00:00 27.1 5 Este 16 Sudeste 0 -- -- 69
2017-07-23 12:00:00 26.8 8 Sudeste 15 Sudeste 0 -- -- 70
2017-07-23 11:00:00 27.2 7 Este 17 Este 0 -- -- 66
2017-07-23 10:00:00 27.1 6 Sudeste 14 Este 0 -- -- 71
2017-07-23 09:00:00 25.6 3 Este 11 Nordeste 0 -- -- 74
2017-07-23 08:00:00 24.7 3 Este 13 Este 0 -- -- 81
2017-07-23 07:00:00 25 5 Este 13 Nordeste 0 -- -- 78
2017-07-23 06:00:00 25.3 5 Este 21 Sudeste 0 -- -- 77
2017-07-23 05:00:00 25.5 7 Este 22 Sudeste 0 -- -- 80
2017-07-23 04:00:00 26.1 6 Este 17 Sudeste 0 -- -- 83
2017-07-23 03:00:00 26 3 Este 6 Nordeste 0 -- -- 75
2017-07-23 02:00:00 26.1 0 Calma 10 Oeste 0 -- -- 76
2017-07-23 01:00:00 26.2 4 Sudoeste 13 Oeste 0 -- -- 80
2017-07-23 00:00:00 26.4 6 Oeste 18 Oeste 0 -- -- 79
2017-07-22 23:00:00 26.6 10 Sudoeste 16 Sur 0 -- -- 77
2017-07-22 22:00:00 27 8 Sudoeste 14 Sudoeste 0 -- -- 73
2017-07-22 21:00:00 27.4 8 Sudoeste 16 Oeste 0 -- -- 70
2017-07-22 20:00:00 27.5 11 Oeste 22 Oeste 0 -- -- 73
2017-07-22 19:00:00 28.3 10 Sudoeste 26 Oeste 0 -- -- 66
2017-07-22 18:00:00 28 9 Sudoeste 21 Sudoeste 0 -- -- 68
2017-07-22 17:00:00 28.7 10 Sudoeste 22 Sudoeste 0 -- -- 67
2017-07-22 16:00:00 29.2 4 Nordeste 17 Sudoeste 0 -- -- 66
2017-07-22 15:00:00 28.5 6 Noroeste 17 Sudoeste 0 -- -- 67
2017-07-22 14:00:00 28.3 5 Noroeste 17 Sudoeste 0 -- -- 67
2017-07-22 13:00:00 27.6 8 Este 21 Sudeste 0 -- -- 66
2017-07-22 12:00:00 27.6 5 Sudeste 17 Este 0 -- -- 68
2017-07-22 11:00:00 27.1 6 Este 14 Este 0 -- -- 69
2017-07-22 10:00:00 25.3 5 Este 14 Nordeste 0 -- -- 78
2017-07-22 09:00:00 24.3 8 Nordeste 14 Nordeste 0 -- -- 79
2017-07-22 08:00:00 23.5 5 Nordeste 10 Nordeste 0 -- -- 80
2017-07-22 07:00:00 23.4 4 Nordeste 13 Nordeste 0 -- -- 78
2017-07-22 06:00:00 23.9 3 Nordeste 9 Nordeste 0 -- -- 78
2017-07-22 05:00:00 23.9 3 Este 6 Nordeste 0 -- -- 79
2017-07-22 04:00:00 24.3 3 Nordeste 10 Nordeste 0 -- -- 77
2017-07-22 03:00:00 24.2 3 Este 6 Este 0 -- -- 78
2017-07-22 02:00:00 24.7 2 Sudoeste 10 Oeste 0 -- -- 78
2017-07-22 01:00:00 25 4 Sudoeste 10 Sudoeste 0 -- -- 77
2017-07-22 00:00:00 24.8 2 Oeste 9 Sudoeste 0 -- -- 76
2017-07-21 23:00:00 25.2 4 Sudoeste 11 Oeste 0 -- -- 75
2017-07-21 22:00:00 25.3 5 Sudoeste 12 Sudoeste 0 -- -- 75
2017-07-21 21:00:00 25.6 7 Sudoeste 17 Sudoeste 0 -- -- 75
2017-07-21 20:00:00 26.2 6 Sudoeste 14 Este 0 -- -- 73
2017-07-21 19:00:00 26.2 5 Este 14 Este 0 -- -- 73
2017-07-21 18:00:00 26.4 7 Sudeste 20 Sudeste 0 -- -- 72
2017-07-21 17:00:00 28.5 5 Noroeste 17 Sur 0 -- -- 62
2017-07-21 16:00:00 29 5 Norte 16 Sudeste 0 -- -- 60
2017-07-21 15:00:00 28.5 6 Oeste 16 Este 0 -- -- 60
2017-07-21 14:00:00 29.3 4 Norte 18 Sudoeste 0 -- -- 58
2017-07-21 13:00:00 27.9 7 Sudoeste 18 Sur 0 -- -- 62
2017-07-21 12:00:00 28.9 5 Este 15 Nordeste 0 -- -- 54
2017-07-21 11:00:00 27.2 4 Oeste 16 Oeste 0 -- -- 58
2017-07-21 10:00:00 26 6 Sudoeste 13 Oeste 0 -- -- 68
2017-07-21 09:00:00 24.4 6 Sudoeste 12 Sudoeste 0 -- -- 75
2017-07-21 08:00:00 23.6 5 Oeste 10 Oeste 0 -- -- 78
2017-07-21 07:00:00 23.5 3 Sudoeste 12 Oeste 0 -- -- 80
2017-07-21 06:00:00 23.8 4 Oeste 8 Oeste 0 -- -- 78
2017-07-21 05:00:00 23.6 2 Este 8 Este 0 -- -- 80
2017-07-21 04:00:00 23.9 3 Este 12 Este 0 -- -- 78
2017-07-21 03:00:00 24.1 4 Este 16 Este 0 -- -- 77
2017-07-21 02:00:00 24.3 8 Este 19 Sudeste 0 -- -- 77
2017-07-21 01:00:00 24.6 9 Este 21 Este 0 -- -- 75
2017-07-21 00:00:00 24.9 8 Este 23 Sudeste 0 -- -- 73
2017-07-20 23:00:00 25.1 9 Este 24 Este 0 -- -- 70
2017-07-20 22:00:00 25.3 8 Este 24 Este 0 -- -- 70
2017-07-20 21:00:00 25.3 9 Este 26 Sudeste 0 -- -- 69
2017-07-20 20:00:00 25.5 11 Este 28 Sudeste 0 -- -- 71
2017-07-20 19:00:00 26.6 10 Este 25 Sudeste 0 -- -- 70
2017-07-20 18:00:00 27.4 10 Este 26 Nordeste 0 -- -- 66
2017-07-20 17:00:00 27.8 11 Este 32 Sudeste 0 -- -- 60
2017-07-20 16:00:00 27.8 11 Este 26 Este 0 -- -- 63
2017-07-20 15:00:00 27.4 12 Este 27 Este 0 -- -- 69
2017-07-20 14:00:00 27.7 10 Este 28 Este 0 -- -- 68
2017-07-20 13:00:00 27.8 10 Este 37 Sudeste 0 -- -- 68
2017-07-20 12:00:00 27.4 15 Este 35 Sudeste 0 -- -- 66
2017-07-20 11:00:00 25.7 11 Este 32 Este 0 -- -- 73
2017-07-20 10:00:00 27.4 10 Este 30 Este 0 -- -- 63
2017-07-20 09:00:00 25.9 6 Este 17 Este 0 -- -- 61
2017-07-20 08:00:00 24.7 6 Este 25 Sudeste 0 -- -- 65
2017-07-20 07:00:00 25 8 Este 24 Este 0 -- -- 69
2017-07-20 06:00:00 -- 8 Este 24 Nordeste 0 -- -- --
2017-07-20 05:00:00 25.4 9 Nordeste 27 Nordeste 0 -- -- 80
2017-07-20 04:00:00 25.4 6 Nordeste 14 Nordeste 0 -- -- 80
2017-07-20 03:00:00 25.5 7 Este 16 Nordeste 0 -- -- 83
2017-07-20 02:00:00 25.6 5 Este 13 Este 0 -- -- 86
2017-07-20 01:00:00 25.7 5 Nordeste 13 Este 0 -- -- 85
2017-07-20 00:00:00 25.8 5 Este 15 Nordeste 0 -- -- 85
2017-07-19 23:00:00 25.8 7 Este 20 Este 0 -- -- 82
2017-07-19 22:00:00 25.9 6 Este 21 Este 0 -- -- 82
2017-07-19 21:00:00 26.2 9 Este 22 Sudeste 0 -- -- 79
2017-07-19 20:00:00 26.9 8 Este 21 Sudeste 0 -- -- 75
2017-07-19 19:00:00 27.6 8 Este 18 Sudeste 0 -- -- 74
2017-07-19 18:00:00 28.7 8 Sudeste 17 Sudeste 0 -- -- 71
2017-07-19 17:00:00 29.4 4 Nordeste 18 Sudeste 0 -- -- 65
2017-07-19 16:00:00 29.7 6 Este 16 Este 0 -- -- 70
2017-07-19 15:00:00 29.5 6 Este 17 Sudeste 0 -- -- 70
2017-07-19 14:00:00 29 7 Este 17 Sudeste 0 -- -- 70
2017-07-19 13:00:00 29.1 8 Este 21 Sudeste 0 -- -- 69
2017-07-19 12:00:00 28.8 7 Sudeste 17 Este 0 -- -- 65
2017-07-19 11:00:00 28.2 5 Sudoeste 12 Sudoeste 0 -- -- 64
2017-07-19 10:00:00 27.6 3 Sudoeste 10 Este 0 -- -- 65
2017-07-19 09:00:00 25.5 3 Este 14 Nordeste 0 -- -- 73
2017-07-19 08:00:00 24.9 3 Sudoeste 13 Oeste 0 -- -- 74
2017-07-19 07:00:00 24.3 5 Oeste 10 Oeste 0 -- -- 77
2017-07-19 06:00:00 24.4 0 Calma 5 Sudeste 0 -- -- 77
2017-07-19 05:00:00 24.8 2 Este 5 Sudoeste 0 -- -- 78
2017-07-19 04:00:00 25.3 0 Calma 5 Nordeste 0 -- -- 77
2017-07-19 03:00:00 25.3 0 Calma 6 Oeste 0 -- -- 78
2017-07-19 02:00:00 25.6 3 Sudoeste 6 Oeste 0 -- -- 80
2017-07-19 01:00:00 25.8 5 Sudoeste 11 Oeste 0 -- -- 79
2017-07-19 00:00:00 -- 5 Sudoeste 10 Oeste 0 -- -- --